Time;durP1;ratioP1;P1;durP2;ratioP2;P2;SDS_P1;SDS_P2;PMS_P1;PMS_P2;Temp;Humidity;BMP_temperature;BMP_pressure;BME280_temperature;BME280_humidity;BME280_pressure;Samples;Min_cycle;Max_cycle;Signal;HPM_P1;HPM_P2
2023/03/08 00:02:47;;;;;;;1.02;0.95;;;;;;;;;;10274127;28;20503;-85
2023/03/08 00:07:53;;;;;;;1.50;1.40;;;;;;;;;;10282954;28;20048;-85
2023/03/08 00:12:56;;;;;;;;;;;;;;;;;;10265676;28;20051;-85
2023/03/08 00:18:01;;;;;;;2.30;1.30;;;;;;;;;;10245106;28;20025;-85
2023/03/08 00:23:05;;;;;;;1.40;1.25;;;;;;;;;;10233188;28;20042;-85
2023/03/08 00:28:08;;;;;;;1.80;1.65;;;;;;;;;;10265805;28;20521;-85
2023/03/08 00:33:14;;;;;;;1.77;1.58;;;;;;;;;;10238839;28;20067;-86
2023/03/08 00:38:18;;;;;;;2.65;1.95;;;;;;;;;;10252184;28;20137;-85
2023/03/08 00:43:22;;;;;;;1.58;1.48;;;;;;;;;;10266290;28;20046;-85
2023/03/08 00:48:26;;;;;;;2.10;1.90;;;;;;;;;;10263275;28;20072;-86
2023/03/08 00:53:31;;;;;;;2.17;1.98;;;;;;;;;;10244629;28;20569;-85
2023/03/08 00:58:34;;;;;;;2.38;2.03;;;;;;;;;;10261767;28;20137;-85
2023/03/08 01:03:40;;;;;;;2.65;2.10;;;;;;;;;;10253902;28;20038;-85
2023/03/08 01:08:44;;;;;;;2.63;2.13;;;;;;;;;;10254672;28;20534;-87
2023/03/08 01:13:50;;;;;;;2.55;2.35;;;;;;;;;;10272488;28;20050;-88
2023/03/08 01:18:57;;;;;;;2.42;2.22;;;;;;;;;;10259254;28;20050;-88
2023/03/08 01:24:02;;;;;;;2.47;2.10;;;;;;;;;;10260639;28;20558;-88
2023/03/08 01:29:05;;;;;;;2.15;1.95;;;;;;;;;;10258210;28;20528;-85
2023/03/08 01:34:11;;;;;;;2.03;1.88;;;;;;;;;;10259770;28;20112;-86
2023/03/08 01:39:15;;;;;;;2.50;1.95;;;;;;;;;;10255808;28;20043;-85
2023/03/08 01:44:21;;;;;;;2.20;2.00;;;;;;;;;;10261219;28;20051;-85
2023/03/08 01:49:33;;;;;;;2.15;1.90;;;;;;;;;;10276472;28;20057;-85
2023/03/08 01:54:42;;;;;;;2.17;1.98;;;;;;;;;;10259943;28;20047;-86
2023/03/08 01:59:48;;;;;;;2.50;2.28;;;;;;;;;;10252760;28;20046;-88
2023/03/08 02:04:54;;;;;;;2.78;2.35;;;;;;;;;;10268247;28;20149;-87
2023/03/08 02:09:58;;;;;;;2.87;2.37;;;;;;;;;;10256242;28;20051;-87
2023/03/08 02:15:05;;;;;;;2.55;2.35;;;;;;;;;;10246346;28;20047;-88
2023/03/08 02:20:15;;;;;;;2.38;2.13;;;;;;;;;;10268982;28;20418;-88
2023/03/08 02:25:23;;;;;;;2.60;2.17;;;;;;;;;;10252258;28;20641;-87
2023/03/08 02:30:30;;;;;;;2.80;2.10;;;;;;;;;;10256205;28;20059;-87
2023/03/08 02:35:33;;;;;;;2.10;1.90;;;;;;;;;;10262938;28;20082;-88
2023/03/08 02:40:39;;;;;;;2.53;2.28;;;;;;;;;;10263631;28;20078;-88
2023/03/08 02:45:45;;;;;;;2.05;1.85;;;;;;;;;;10278468;28;20050;-88
2023/03/08 02:50:51;;;;;;;2.25;2.05;;;;;;;;;;10265745;28;20047;-87
2023/03/08 02:55:57;;;;;;;2.13;1.90;;;;;;;;;;10267405;28;20051;-87
2023/03/08 03:01:12;;;;;;;3.08;2.70;;;;;;;;;;10263358;28;20545;-87
2023/03/08 03:06:19;;;;;;;2.38;2.17;;;;;;;;;;10271209;28;20402;-87
2023/03/08 03:11:28;;;;;;;2.83;2.50;;;;;;;;;;10267993;28;20043;-87
2023/03/08 03:16:32;;;;;;;3.10;2.67;;;;;;;;;;10267944;28;20078;-86
2023/03/08 03:21:35;;;;;;;3.50;2.83;;;;;;;;;;10269669;28;20047;-87
2023/03/08 03:26:40;;;;;;;2.65;2.35;;;;;;;;;;10253168;28;20117;-86
2023/03/08 03:31:44;;;;;;;2.70;2.40;;;;;;;;;;10253230;28;20663;-87
2023/03/08 03:36:49;;;;;;;2.83;2.53;;;;;;;;;;10268115;28;20133;-86
2023/03/08 03:41:54;;;;;;;3.15;2.83;;;;;;;;;;10262071;28;20478;-87
2023/03/08 03:46:58;;;;;;;2.95;2.33;;;;;;;;;;10260173;28;20422;-87
2023/03/08 03:52:04;;;;;;;2.95;2.50;;;;;;;;;;10269511;28;20121;-87
2023/03/08 03:57:15;;;;;;;3.05;2.58;;;;;;;;;;10254747;28;20043;-87
2023/03/08 04:02:19;;;;;;;3.03;2.60;;;;;;;;;;10267406;28;20045;-87
2023/03/08 04:07:29;;;;;;;4.25;3.15;;;;;;;;;;10263913;28;20289;-87
2023/03/08 04:12:36;;;;;;;;;;;;;;;;;;10266428;28;20733;-86
2023/03/08 04:17:40;;;;;;;2.45;1.92;;;;;;;;;;10252020;28;20010;-86
2023/03/08 04:22:43;;;;;;;2.65;2.13;;;;;;;;;;10259873;28;20044;-85
2023/03/08 04:27:55;;;;;;;3.75;2.45;;;;;;;;;;10257283;28;20058;-87
2023/03/08 04:32:59;;;;;;;2.78;2.25;;;;;;;;;;10274850;28;20035;-86
2023/03/08 04:38:11;;;;;;;4.05;2.72;;;;;;;;;;10273699;28;20047;-85
2023/03/08 04:43:17;;;;;;;4.85;2.60;;;;;;;;;;10271636;28;20575;-86
2023/03/08 04:48:20;;;;;;;4.43;2.80;;;;;;;;;;10277520;28;20675;-88
2023/03/08 04:53:25;;;;;;;5.28;3.40;;;;;;;;;;10275280;28;20043;-87
2023/03/08 04:58:30;;;;;;;7.18;4.93;;;;;;;;;;10282704;28;20038;-87
2023/03/08 05:03:34;;;;;;;5.27;3.70;;;;;;;;;;10277220;28;20050;-87
2023/03/08 05:08:37;;;;;;;3.70;3.00;;;;;;;;;;10286163;28;20042;-87
2023/03/08 05:13:43;;;;;;;4.78;2.75;;;;;;;;;;10273572;28;20113;-86
2023/03/08 05:18:48;;;;;;;4.57;2.83;;;;;;;;;;10279670;28;20047;-86
2023/03/08 05:23:54;;;;;;;4.32;3.15;;;;;;;;;;10248740;28;20047;-86
2023/03/08 05:29:05;;;;;;;4.33;3.00;;;;;;;;;;10270337;28;20051;-86
2023/03/08 05:34:11;;;;;;;5.60;3.30;;;;;;;;;;10258572;28;20047;-86
2023/03/08 05:39:17;;;;;;;5.10;3.20;;;;;;;;;;10269353;28;20045;-86
2023/03/08 05:44:45;;;;;;;5.32;3.78;;;;;;;;;;10275420;28;20410;-87
2023/03/08 05:49:51;;;;;;;5.63;3.92;;;;;;;;;;10246538;28;20558;-87
2023/03/08 05:54:59;;;;;;;5.65;3.80;;;;;;;;;;10260143;28;20714;-87
2023/03/08 06:00:06;;;;;;;7.00;4.15;;;;;;;;;;10262310;28;20053;-88
2023/03/08 06:05:22;;;;;;;7.53;4.85;;;;;;;;;;10272947;28;20467;-88
2023/03/08 06:10:35;;;;;;;9.60;5.30;;;;;;;;;;10237837;28;20074;-88
2023/03/08 06:16:03;;;;;;;6.75;4.60;;;;;;;;;;10256266;28;20046;-88
2023/03/08 06:21:21;;;;;;;7.60;4.43;;;;;;;;;;10257700;28;20089;-89
2023/03/08 06:26:54;;;;;;;8.15;5.10;;;;;;;;;;10253690;28;20126;-88
2023/03/08 06:32:21;;;;;;;6.47;4.25;;;;;;;;;;10248086;28;20050;-88
2023/03/08 06:37:38;;;;;;;6.50;3.90;;;;;;;;;;10251463;28;20522;-88
2023/03/08 06:42:52;;;;;;;9.25;5.10;;;;;;;;;;10245326;28;20034;-89
2023/03/08 06:48:07;;;;;;;9.80;5.85;;;;;;;;;;10267625;28;20145;-89
2023/03/08 06:53:22;;;;;;;8.98;4.93;;;;;;;;;;10241894;28;20102;-90
2023/03/08 06:58:35;;;;;;;7.80;4.30;;;;;;;;;;10259525;28;20090;-88
2023/03/08 07:04:05;;;;;;;10.82;6.25;;;;;;;;;;10269625;28;20042;-88
2023/03/08 07:14:44;;;;;;;12.57;7.65;;;;;;;;;;10208632;28;20058;-91
2023/03/08 07:20:43;;;;;;;11.15;6.75;;;;;;;;;;10282320;28;20087;-90
2023/03/08 07:26:58;;;;;;;13.32;7.68;;;;;;;;;;10277973;28;20043;-91
2023/03/08 07:32:27;;;;;;;;;;;;;;;;;;10204897;28;20048;-91
2023/03/08 07:38:14;;;;;;;12.88;7.75;;;;;;;;;;10243200;28;20342;-90
2023/03/08 07:44:14;;;;;;;12.68;7.57;;;;;;;;;;10226429;28;20044;-90
2023/03/08 07:49:59;;;;;;;13.52;8.90;;;;;;;;;;10233045;28;20415;-90
2023/03/08 07:55:31;;;;;;;17.00;9.02;;;;;;;;;;10218561;28;20117;-90
2023/03/08 08:00:41;;;;;;;11.53;6.00;;;;;;;;;;10240920;28;20077;-92
2023/03/08 08:05:58;;;;;;;11.88;7.18;;;;;;;;;;10199753;28;20142;-90
2023/03/08 08:16:42;;;;;;;9.00;6.38;;;;;;;;;;10217111;28;20090;-93
2023/03/08 08:22:00;;;;;;;6.97;4.53;;;;;;;;;;10206706;28;20074;-90
2023/03/08 08:33:48;;;;;;;5.50;3.58;;;;;;;;;;10242705;28;20046;-89
2023/03/08 08:39:28;;;;;;;6.03;3.97;;;;;;;;;;10050150;29;20075;-90
2023/03/08 08:44:48;;;;;;;6.43;4.20;;;;;;;;;;10063409;29;20084;-90
2023/03/08 08:49:55;;;;;;;3.95;2.88;;;;;;;;;;10065692;29;20059;-87
2023/03/08 08:55:04;;;;;;;5.70;3.00;;;;;;;;;;10146907;28;20562;-88
2023/03/08 09:00:20;;;;;;;2.95;2.38;;;;;;;;;;10259766;28;20580;-87
2023/03/08 09:05:41;;;;;;;2.75;2.22;;;;;;;;;;10265987;28;20106;-88
2023/03/08 09:10:50;;;;;;;2.90;2.13;;;;;;;;;;10266201;28;20057;-88
2023/03/08 09:16:22;;;;;;;2.67;2.17;;;;;;;;;;10244756;28;20130;-90
2023/03/08 09:21:52;;;;;;;2.55;1.88;;;;;;;;;;10111966;29;20056;-92
2023/03/08 09:27:03;;;;;;;2.25;1.88;;;;;;;;;;10249042;28;20137;-92
2023/03/08 09:33:19;;;;;;;2.35;1.73;;;;;;;;;;10257127;28;20533;-91
2023/03/08 09:38:26;;;;;;;2.60;1.90;;;;;;;;;;10255385;28;20082;-92
2023/03/08 10:03:11;;;;;;;2.53;1.92;;;;;;;;;;10277633;28;20046;-92
2023/03/08 10:14:36;;;;;;;2.33;1.93;;;;;;;;;;10184029;29;20059;-91
2023/03/08 10:20:08;;;;;;;2.83;1.88;;;;;;;;;;10203145;29;20044;-92
2023/03/08 10:25:37;;;;;;;3.17;2.05;;;;;;;;;;10324864;23;20530;-77
2023/03/08 10:30:45;;;;;;;3.50;2.42;;;;;;;;;;10273264;28;20098;-77
2023/03/08 10:35:56;;;;;;;2.80;2.30;;;;;;;;;;10271349;28;20047;-77
2023/03/08 10:41:01;;;;;;;2.25;1.83;;;;;;;;;;10281008;28;20055;-77
2023/03/08 10:46:11;;;;;;;2.38;1.77;;;;;;;;;;10260309;28;20069;-77
2023/03/08 10:51:17;;;;;;;2.20;1.33;;;;;;;;;;10262042;28;20547;-77
2023/03/08 10:56:25;;;;;;;1.52;1.40;;;;;;;;;;10276172;28;20053;-76
2023/03/08 11:01:32;;;;;;;1.65;1.35;;;;;;;;;;10278149;28;20093;-76
2023/03/08 11:06:35;;;;;;;1.30;1.20;;;;;;;;;;10272189;28;20043;-76
2023/03/08 11:11:42;;;;;;;1.85;1.35;;;;;;;;;;10270830;28;20043;-76
2023/03/08 11:17:12;;;;;;;3.65;2.17;;;;;;;;;;10258148;28;20062;-76
2023/03/08 11:22:37;;;;;;;2.50;1.70;;;;;;;;;;10247475;28;20035;-76
2023/03/08 11:28:00;;;;;;;1.27;1.10;;;;;;;;;;10272736;28;20063;-76
2023/03/08 11:33:34;;;;;;;2.05;1.48;;;;;;;;;;10258604;28;20046;-76
2023/03/08 11:38:38;;;;;;;1.20;1.05;;;;;;;;;;10246304;28;20574;-77
2023/03/08 11:44:03;;;;;;;1.90;1.27;;;;;;;;;;10268587;28;20457;-76
2023/03/08 11:49:38;;;;;;;1.55;1.23;;;;;;;;;;10275958;28;20043;-76
2023/03/08 11:54:52;;;;;;;2.75;1.50;;;;;;;;;;10262386;28;20150;-76
2023/03/08 12:00:01;;;;;;;2.25;1.35;;;;;;;;;;10275344;28;20049;-76
2023/03/08 12:05:11;;;;;;;2.83;1.25;;;;;;;;;;10254006;28;20065;-76
2023/03/08 12:10:20;;;;;;;1.42;1.13;;;;;;;;;;10270681;28;20086;-76
2023/03/08 12:15:28;;;;;;;0.82;0.80;;;;;;;;;;10272741;28;20061;-76
2023/03/08 12:20:37;;;;;;;1.00;0.95;;;;;;;;;;10265389;28;20039;-76
2023/03/08 12:25:43;;;;;;;1.30;1.20;;;;;;;;;;10260254;28;20046;-76
2023/03/08 12:31:01;;;;;;;1.20;1.10;;;;;;;;;;10242473;28;20077;-76
2023/03/08 12:36:08;;;;;;;2.20;1.40;;;;;;;;;;10244078;28;20047;-76
2023/03/08 12:41:24;;;;;;;0.98;0.95;;;;;;;;;;10242334;28;20358;-76
2023/03/08 12:46:27;;;;;;;1.10;1.00;;;;;;;;;;10270029;28;20047;-77
2023/03/08 12:51:37;;;;;;;1.67;1.27;;;;;;;;;;10254140;28;20593;-77
2023/03/08 12:56:52;;;;;;;0.70;0.70;;;;;;;;;;10255235;28;20050;-77
2023/03/08 13:02:01;;;;;;;0.70;0.70;;;;;;;;;;10272575;28;20477;-77
2023/03/08 13:07:22;;;;;;;1.27;1.15;;;;;;;;;;10252795;28;20544;-77
2023/03/08 13:12:40;;;;;;;2.42;1.13;;;;;;;;;;10268444;28;20463;-77
2023/03/08 13:17:50;;;;;;;1.20;0.95;;;;;;;;;;10253885;28;20073;-77
2023/03/08 13:23:01;;;;;;;1.70;1.20;;;;;;;;;;10245900;28;20042;-77
2023/03/08 13:28:07;;;;;;;0.80;0.80;;;;;;;;;;10254080;28;20166;-77
2023/03/08 13:33:15;;;;;;;1.15;1.02;;;;;;;;;;10256903;28;20054;-77
2023/03/08 13:38:22;;;;;;;1.02;0.90;;;;;;;;;;10253657;28;20050;-78
2023/03/08 13:43:28;;;;;;;2.17;1.15;;;;;;;;;;10240140;28;20054;-78
2023/03/08 13:48:33;;;;;;;0.80;0.80;;;;;;;;;;10251913;28;20046;-78
2023/03/08 13:53:39;;;;;;;0.93;0.90;;;;;;;;;;10251701;28;20043;-78
2023/03/08 13:58:46;;;;;;;1.38;0.98;;;;;;;;;;10248728;28;20137;-78
2023/03/08 14:03:51;;;;;;;3.22;1.83;;;;;;;;;;10253408;28;20039;-78
2023/03/08 14:08:59;;;;;;;2.90;1.70;;;;;;;;;;10252347;28;20139;-78
2023/03/08 14:14:05;;;;;;;2.80;1.67;;;;;;;;;;10252903;28;20537;-79
2023/03/08 14:19:11;;;;;;;1.92;1.50;;;;;;;;;;10252229;28;20073;-79
2023/03/08 14:24:21;;;;;;;1.30;1.20;;;;;;;;;;10253377;28;20645;-79
2023/03/08 14:29:28;;;;;;;0.80;0.80;;;;;;;;;;10239350;28;20527;-80
2023/03/08 14:34:38;;;;;;;1.10;1.00;;;;;;;;;;10259014;28;20043;-80
2023/03/08 14:39:46;;;;;;;1.65;0.75;;;;;;;;;;10262456;28;20243;-80
2023/03/08 14:45:26;;;;;;;0.77;0.77;;;;;;;;;;10243311;28;20319;-81
2023/03/08 15:08:41;;;;;;;1.27;0.95;;;;;;;;;;11006558;23;20053;-87
2023/03/08 15:13:45;;;;;;;0.90;0.70;;;;;;;;;;10327025;28;20132;-84
2023/03/08 15:18:48;;;;;;;1.17;1.08;;;;;;;;;;10285100;28;20050;-84
2023/03/08 15:23:54;;;;;;;2.22;1.33;;;;;;;;;;10298703;28;20172;-84
2023/03/08 15:28:58;;;;;;;2.20;2.03;;;;;;;;;;10302366;28;20541;-84
2023/03/08 15:34:01;;;;;;;2.78;1.92;;;;;;;;;;10302470;28;20085;-85
2023/03/08 15:39:06;;;;;;;2.70;2.00;;;;;;;;;;10296968;28;20047;-85
2023/03/08 15:44:10;;;;;;;2.13;1.45;;;;;;;;;;10320045;28;20061;-85
2023/03/08 15:49:13;;;;;;;1.90;1.38;;;;;;;;;;10314768;28;20281;-85
2023/03/08 15:54:18;;;;;;;1.30;1.10;;;;;;;;;;10293316;28;20130;-84
2023/03/08 15:59:25;;;;;;;3.58;1.88;;;;;;;;;;10324977;28;20272;-88
2023/03/08 16:04:44;;;;;;;4.10;3.03;;;;;;;;;;10312235;28;20046;-87
2023/03/08 16:09:50;;;;;;;2.38;1.52;;;;;;;;;;10319070;28;20517;-90
2023/03/08 16:14:55;;;;;;;2.67;2.33;;;;;;;;;;10297614;28;20047;-89
2023/03/08 16:19:59;;;;;;;5.50;3.60;;;;;;;;;;10289620;28;20359;-87
2023/03/08 16:25:05;;;;;;;3.88;2.97;;;;;;;;;;10280709;28;20485;-86
2023/03/08 16:30:11;;;;;;;1.65;1.55;;;;;;;;;;10317284;28;20050;-85
2023/03/08 16:35:15;;;;;;;1.50;1.40;;;;;;;;;;10289925;28;20046;-84
2023/03/08 16:40:20;;;;;;;1.20;1.10;;;;;;;;;;10311922;28;20049;-84
2023/03/08 16:45:23;;;;;;;1.05;0.98;;;;;;;;;;10312739;28;20046;-87
2023/03/08 16:50:27;;;;;;;1.80;1.17;;;;;;;;;;10285929;28;20053;-87
2023/03/08 16:55:35;;;;;;;2.65;1.42;;;;;;;;;;10279687;28;20161;-87
2023/03/08 17:00:39;;;;;;;1.88;1.58;;;;;;;;;;10302024;28;20066;-88
2023/03/08 17:05:45;;;;;;;2.17;1.80;;;;;;;;;;10270101;28;20079;-84
2023/03/08 17:10:50;;;;;;;2.70;1.80;;;;;;;;;;10305534;28;20082;-85
2023/03/08 17:15:55;;;;;;;3.10;2.10;;;;;;;;;;10291471;28;20054;-85
2023/03/08 17:20:58;;;;;;;2.97;2.47;;;;;;;;;;10293853;28;20049;-87
2023/03/08 17:26:05;;;;;;;8.05;4.03;;;;;;;;;;10300567;28;20046;-84
2023/03/08 17:31:09;;;;;;;6.53;3.45;;;;;;;;;;10297061;28;20065;-82
2023/03/08 17:36:13;;;;;;;9.93;4.53;;;;;;;;;;10302776;28;20137;-84
2023/03/08 17:41:19;;;;;;;7.95;4.00;;;;;;;;;;10295468;28;20058;-83
2023/03/08 17:46:24;;;;;;;4.35;2.78;;;;;;;;;;10305491;28;20129;-87
2023/03/08 17:51:30;;;;;;;6.88;4.47;;;;;;;;;;10296893;28;20137;-84
2023/03/08 17:56:37;;;;;;;7.80;4.32;;;;;;;;;;10285863;28;20039;-85
2023/03/08 18:01:43;;;;;;;5.57;3.50;;;;;;;;;;10283353;28;20042;-85
2023/03/08 18:06:47;;;;;;;3.42;2.33;;;;;;;;;;10272624;28;20490;-85
2023/03/08 18:11:52;;;;;;;3.92;2.53;;;;;;;;;;10296027;28;20058;-86
2023/03/08 18:16:55;;;;;;;5.05;2.50;;;;;;;;;;10267084;28;20130;-83
2023/03/08 18:21:59;;;;;;;3.72;2.67;;;;;;;;;;10300557;28;20137;-83
2023/03/08 18:27:05;;;;;;;2.67;2.10;;;;;;;;;;10380066;23;20037;-82
2023/03/08 18:32:08;;;;;;;2.38;1.90;;;;;;;;;;10306619;28;20414;-81
2023/03/08 18:37:12;;;;;;;2.30;1.85;;;;;;;;;;10277615;28;20516;-82
2023/03/08 18:42:16;;;;;;;2.45;2.03;;;;;;;;;;10276482;28;20042;-81
2023/03/08 18:47:20;;;;;;;2.42;2.00;;;;;;;;;;10278589;28;20049;-81
2023/03/08 18:52:23;;;;;;;2.60;2.10;;;;;;;;;;10278746;28;20051;-81
2023/03/08 18:57:27;;;;;;;2.72;2.15;;;;;;;;;;10282946;28;20614;-81
2023/03/08 19:02:31;;;;;;;3.75;2.60;;;;;;;;;;10296403;28;20064;-81
2023/03/08 19:07:34;;;;;;;3.83;2.60;;;;;;;;;;10285011;28;20126;-82
2023/03/08 19:12:39;;;;;;;4.15;3.67;;;;;;;;;;10288183;28;20053;-82
2023/03/08 19:17:42;;;;;;;5.53;3.85;;;;;;;;;;10278841;28;20054;-82
2023/03/08 19:22:47;;;;;;;8.95;5.43;;;;;;;;;;10279120;28;20070;-81
2023/03/08 19:27:53;;;;;;;;;;;;;;;;;;10269592;28;20070;-80
2023/03/08 19:32:57;;;;;;;6.22;4.07;;;;;;;;;;10256596;28;19922;-81
2023/03/08 19:38:00;;;;;;;5.72;3.88;;;;;;;;;;10263234;28;20066;-81
2023/03/08 19:43:05;;;;;;;6.35;4.50;;;;;;;;;;10276772;28;20367;-83
2023/03/08 19:48:08;;;;;;;8.07;4.30;;;;;;;;;;10281377;28;20039;-82
2023/03/08 19:53:11;;;;;;;4.28;3.50;;;;;;;;;;10251478;28;20043;-82
2023/03/08 19:58:16;;;;;;;5.97;4.07;;;;;;;;;;10241362;28;20061;-83
2023/03/08 20:03:19;;;;;;;6.60;4.40;;;;;;;;;;10246160;28;20055;-83
2023/03/08 20:08:23;;;;;;;6.93;4.38;;;;;;;;;;10255566;28;20043;-83
2023/03/08 20:13:27;;;;;;;5.68;3.75;;;;;;;;;;10244022;28;20387;-82
2023/03/08 20:18:31;;;;;;;5.63;3.35;;;;;;;;;;10246149;28;20042;-82
2023/03/08 20:23:35;;;;;;;5.25;3.92;;;;;;;;;;10246713;28;20070;-83
2023/03/08 20:28:40;;;;;;;5.28;3.33;;;;;;;;;;10253212;28;20079;-82
2023/03/08 20:33:43;;;;;;;3.45;2.58;;;;;;;;;;10198180;29;20889;-83
2023/03/08 20:38:47;;;;;;;2.75;2.13;;;;;;;;;;10227822;29;20044;-83
2023/03/08 20:43:54;;;;;;;3.72;1.70;;;;;;;;;;10210113;29;20102;-82
2023/03/08 20:48:57;;;;;;;1.85;1.23;;;;;;;;;;10198394;28;20047;-84
2023/03/08 20:54:01;;;;;;;2.97;1.67;;;;;;;;;;10207303;29;20054;-82
2023/03/08 20:59:06;;;;;;;1.88;1.48;;;;;;;;;;10211640;28;20040;-83
2023/03/08 21:04:10;;;;;;;;;;;;;;;;;;10205951;29;20103;-82
2023/03/08 21:09:14;;;;;;;2.38;1.83;;;;;;;;;;10195540;28;19932;-81
2023/03/08 21:14:18;;;;;;;2.38;2.00;;;;;;;;;;10229649;28;20051;-81
2023/03/08 21:19:22;;;;;;;4.40;2.97;;;;;;;;;;10227767;29;20039;-81
2023/03/08 21:24:26;;;;;;;4.90;2.97;;;;;;;;;;10216340;29;20055;-82
2023/03/08 21:29:31;;;;;;;3.78;2.25;;;;;;;;;;10192749;28;20075;-81
2023/03/08 21:34:34;;;;;;;3.38;2.17;;;;;;;;;;10248401;28;20495;-81
2023/03/08 21:39:37;;;;;;;3.08;2.03;;;;;;;;;;10211397;28;20130;-83
2023/03/08 21:44:42;;;;;;;3.58;1.88;;;;;;;;;;10223695;29;20051;-83
2023/03/08 21:49:45;;;;;;;2.20;1.58;;;;;;;;;;10222010;29;20162;-82
2023/03/08 21:54:49;;;;;;;2.60;1.70;;;;;;;;;;10217257;29;20055;-82
2023/03/08 21:59:53;;;;;;;2.40;1.35;;;;;;;;;;10180793;29;20044;-82
2023/03/08 22:04:59;;;;;;;1.50;1.10;;;;;;;;;;10213823;29;20051;-83
2023/03/08 22:10:02;;;;;;;1.42;1.20;;;;;;;;;;10226862;29;20047;-82
2023/03/08 22:15:09;;;;;;;4.18;1.58;;;;;;;;;;10212217;29;20047;-83
2023/03/08 22:20:12;;;;;;;3.65;1.63;;;;;;;;;;10226812;29;20051;-83
2023/03/08 22:25:16;;;;;;;3.60;1.63;;;;;;;;;;10213875;29;20055;-82
2023/03/08 22:30:24;;;;;;;2.97;1.80;;;;;;;;;;10208079;29;20051;-82
2023/03/08 22:35:28;;;;;;;2.95;1.45;;;;;;;;;;10204626;29;20422;-82
2023/03/08 22:40:31;;;;;;;2.60;1.15;;;;;;;;;;10216762;29;20066;-80
2023/03/08 22:45:36;;;;;;;1.23;0.75;;;;;;;;;;10234819;29;20079;-81
2023/03/08 22:50:40;;;;;;;2.92;1.02;;;;;;;;;;10217649;28;20051;-83
2023/03/08 22:55:47;;;;;;;1.40;0.85;;;;;;;;;;10213255;28;20048;-83
2023/03/08 23:00:52;;;;;;;0.77;0.65;;;;;;;;;;10235830;28;20514;-82
2023/03/08 23:05:55;;;;;;;0.80;0.68;;;;;;;;;;10232758;29;20074;-84
2023/03/08 23:10:59;;;;;;;2.50;0.80;;;;;;;;;;10193861;29;20055;-83
2023/03/08 23:16:06;;;;;;;0.88;0.82;;;;;;;;;;10210091;29;20058;-82
2023/03/08 23:21:11;;;;;;;2.70;0.80;;;;;;;;;;10195576;29;20489;-83
2023/03/08 23:26:15;;;;;;;0.65;0.60;;;;;;;;;;10213358;29;20051;-83
2023/03/08 23:31:23;;;;;;;0.93;0.70;;;;;;;;;;10237016;28;20043;-82
2023/03/08 23:36:28;;;;;;;1.38;0.82;;;;;;;;;;10199223;29;20107;-81
2023/03/08 23:41:32;;;;;;;0.77;0.67;;;;;;;;;;10206010;29;20054;-83
2023/03/08 23:46:37;;;;;;;0.50;0.50;;;;;;;;;;10209475;29;20137;-83
2023/03/08 23:51:41;;;;;;;0.50;0.50;;;;;;;;;;10206681;29;20047;-83
2023/03/08 23:56:44;;;;;;;0.60;0.60;;;;;;;;;;10222986;28;20047;-83
